Time;durP1;ratioP1;P1;durP2;ratioP2;P2;SDS_P1;SDS_P2;PMS_P1;PMS_P2;Temp;Humidity;BMP_temperature;BMP_pressure;BME280_temperature;BME280_humidity;BME280_pressure;Samples;Min_cycle;Max_cycle;Signal;HPM_P1;HPM_P2
2022/02/10 00:21:11;;;;;;;23.35;11.00;;;10.30;90.10;;;;;;6155403;22;93106;-75
2022/02/10 00:24:09;;;;;;;22.67;11.63;;;10.30;90.10;;;;;;6131647;22;93053;-75
2022/02/10 00:34:53;;;;;;;10.35;5.65;;;10.40;90.00;;;;;;6155875;22;92968;-71
2022/02/10 00:37:25;;;;;;;9.43;6.22;;;10.40;89.80;;;;;;6128621;22;92475;-75
2022/02/10 00:42:21;;;;;;;16.65;7.38;;;10.40;89.90;;;;;;6129748;22;93459;-71
2022/02/10 00:44:48;;;;;;;13.40;6.60;;;10.40;89.80;;;;;;6156432;22;92969;-75
2022/02/10 00:47:15;;;;;;;11.40;6.63;;;10.40;89.60;;;;;;6130088;22;92405;-75
2022/02/10 00:49:43;;;;;;;12.60;7.53;;;10.40;89.80;;;;;;6104881;22;92696;-75
2022/02/10 00:52:10;;;;;;;16.65;8.23;;;10.30;89.80;;;;;;6153095;22;95377;-75
2022/02/10 00:54:39;;;;;;;18.80;8.18;;;10.40;89.80;;;;;;6129565;22;94263;-75
2022/02/10 00:57:09;;;;;;;16.90;8.18;;;10.30;89.90;;;;;;6156182;22;92360;-75
2022/02/10 01:10:38;;;;;;;17.08;8.98;;;10.40;89.70;;;;;;6129694;22;91744;-75
2022/02/10 01:13:24;;;;;;;18.52;9.27;;;10.40;89.80;;;;;;6129118;22;95826;-75
2022/02/10 01:29:57;;;;;;;14.75;9.13;;;10.30;89.80;;;;;;6064547;23;92345;-75
2022/02/10 01:32:26;;;;;;;16.77;8.90;;;10.30;89.90;;;;;;6093511;22;92447;-75
2022/02/10 01:34:53;;;;;;;18.08;9.15;;;10.30;89.90;;;;;;6129591;22;92534;-75
2022/02/10 01:37:20;;;;;;;16.63;8.85;;;10.40;90.00;;;;;;6155767;22;102870;-75
2022/02/10 01:39:53;;;;;;;17.48;9.25;;;10.40;89.90;;;;;;6129463;22;92457;-75
2022/02/10 02:04:30;;;;;;;15.90;8.63;;;10.40;89.90;;;;;;6156226;22;92088;-75
2022/02/10 02:06:57;;;;;;;18.50;9.02;;;10.40;89.90;;;;;;6129013;22;95848;-75
2022/02/10 02:09:24;;;;;;;16.80;8.77;;;10.40;89.90;;;;;;6104087;22;93985;-75
2022/02/10 02:11:54;;;;;;;15.85;8.73;;;10.40;89.80;;;;;;6127331;22;94763;-75
2022/02/10 02:14:24;;;;;;;18.15;9.80;;;10.40;89.80;;;;;;6155919;22;92444;-75
2022/02/10 02:17:00;;;;;;;15.32;7.95;;;10.40;89.80;;;;;;6128053;22;95678;-75
2022/02/10 02:19:27;;;;;;;15.63;8.15;;;10.40;89.70;;;;;;6128947;22;95464;-75
2022/02/10 02:22:08;;;;;;;17.00;8.93;;;10.40;89.70;;;;;;6128699;22;92518;-75
2022/02/10 02:24:36;;;;;;;18.80;9.15;;;10.50;89.70;;;;;;6155658;22;92299;-75
2022/02/10 02:27:06;;;;;;;15.00;8.10;;;10.40;89.50;;;;;;6155865;22;93042;-75
2022/02/10 02:29:42;;;;;;;14.15;8.23;;;10.40;89.50;;;;;;6129691;22;92677;-75
2022/02/10 02:32:21;;;;;;;15.27;7.68;;;10.40;89.50;;;;;;6155783;22;92272;-75
2022/02/10 03:07:12;;;;;;;4.85;3.45;;;9.80;90.50;;;;;;6099016;23;92346;-75
2022/02/10 03:09:52;;;;;;;4.87;3.10;;;9.80;90.50;;;;;;6099198;23;93185;-75
2022/02/10 03:12:19;;;;;;;3.70;2.75;;;9.70;90.60;;;;;;6125371;23;92830;-75
2022/02/10 03:14:50;;;;;;;4.70;3.15;;;9.70;90.70;;;;;;6099365;23;92417;-75
2022/02/10 03:17:42;;;;;;;3.33;2.85;;;9.70;90.70;;;;;;6125421;23;92375;-75
2022/02/10 03:20:33;;;;;;;4.85;2.78;;;9.60;90.80;;;;;;6125283;23;92362;-75
2022/02/10 04:14:24;;;;;;;6.40;3.22;;;8.80;91.00;;;;;;6126198;23;93097;-74
2022/02/10 04:17:11;;;;;;;6.22;3.30;;;8.90;91.10;;;;;;6077579;23;95590;-74
2022/02/10 04:19:58;;;;;;;5.75;3.10;;;9.00;91.00;;;;;;6100331;23;92520;-74
2022/02/10 04:22:38;;;;;;;6.38;3.45;;;9.00;90.90;;;;;;6099859;23;92401;-74
2022/02/10 04:57:50;;;;;;;7.35;4.38;;;9.30;90.00;;;;;;6107639;22;100251;-75
2022/02/10 05:20:01;;;;;;;7.47;3.92;;;9.10;89.10;;;;;;6152195;22;95257;-74
2022/02/10 05:23:41;;;;;;;6.90;3.63;;;9.20;89.20;;;;;;6154806;22;95437;-74
2022/02/10 05:33:42;;;;;;;6.18;4.32;;;9.20;89.40;;;;;;6156077;22;92893;-74
2022/02/10 05:36:12;;;;;;;5.20;4.15;;;9.20;89.50;;;;;;6131626;22;92357;-74
2022/02/10 05:38:49;;;;;;;6.75;4.75;;;9.20;89.70;;;;;;6129716;22;91792;-74
2022/02/10 05:44:25;;;;;;;6.55;4.13;;;9.30;89.60;;;;;;6129263;22;93881;-74
2022/02/10 05:52:49;;;;;;;7.97;5.22;;;9.20;89.50;;;;;;6155043;22;93090;-74
2022/02/10 05:55:37;;;;;;;7.38;5.38;;;9.30;89.50;;;;;;6155331;22;92842;-75
2022/02/10 05:58:21;;;;;;;9.52;4.93;;;9.20;89.40;;;;;;6129116;22;93023;-74
2022/02/10 06:43:34;;;;;;;8.57;5.97;;;9.10;89.20;;;;;;6154556;22;94779;-74
2022/02/10 06:50:47;;;;;;;9.52;5.55;;;9.10;89.20;;;;;;6128350;22;94596;-75
2022/02/10 06:53:36;;;;;;;11.25;5.90;;;9.10;89.60;;;;;;6148074;22;92480;-74
2022/02/10 07:07:08;;;;;;;10.60;6.93;;;9.00;89.50;;;;;;6154111;22;92557;-74
2022/02/10 07:53:36;;;;;;;12.48;8.35;;;9.00;89.90;;;;;;6153950;22;95609;-74
2022/02/10 09:47:28;;;;;;;11.63;6.63;;;10.50;83.60;;;;;;6125503;23;92441;-75
2022/02/10 10:03:18;;;;;;;11.85;4.70;;;11.10;78.80;;;;;;6102165;23;93102;-75
2022/02/10 10:06:11;;;;;;;8.13;4.15;;;11.20;78.40;;;;;;6098931;23;98393;-75
2022/02/10 10:09:07;;;;;;;9.30;4.13;;;11.30;78.00;;;;;;6125586;23;92352;-75
2022/02/10 10:14:10;;;;;;;6.18;3.42;;;11.30;77.70;;;;;;6125129;23;93097;-75
2022/02/10 10:19:25;;;;;;;9.65;3.95;;;11.40;76.60;;;;;;6124319;23;94781;-75
2022/02/10 10:27:56;;;;;;;7.63;3.80;;;11.50;76.40;;;;;;6090850;23;95615;-75
2022/02/10 10:53:47;;;;;;;12.60;3.53;;;11.80;75.00;;;;;;6074235;23;92716;-75
2022/02/10 10:56:24;;;;;;;10.70;3.13;;;11.80;74.30;;;;;;6103413;23;92406;-75
2022/02/10 11:38:33;;;;;;;5.70;1.67;;;11.70;69.30;;;;;;6125093;23;92681;-75
2022/02/10 11:41:28;;;;;;;4.65;2.10;;;11.50;68.90;;;;;;6125260;23;92703;-75
2022/02/10 11:47:44;;;;;;;6.97;2.10;;;11.40;69.20;;;;;;6124943;23;96472;-75
2022/02/10 14:13:25;;;;;;;6.55;2.33;;;11.30;64.70;;;;;;6155531;22;92946;-75
2022/02/10 14:18:40;;;;;;;8.25;2.17;;;11.10;64.20;;;;;;6155897;22;92379;-76
2022/02/10 14:21:12;;;;;;;8.82;2.20;;;11.10;65.40;;;;;;6104683;22;93101;-75
2022/02/10 14:26:30;;;;;;;6.63;2.17;;;11.00;66.60;;;;;;6129256;22;92339;-76
2022/02/10 14:28:57;;;;;;;8.98;2.00;;;11.00;65.90;;;;;;6155781;22;92842;-74
2022/02/10 14:31:25;;;;;;;4.13;1.65;;;11.00;66.20;;;;;;6127237;22;95497;-74
2022/02/10 14:33:53;;;;;;;10.05;2.47;;;11.00;65.80;;;;;;6155401;22;95361;-74
2022/02/10 14:39:51;;;;;;;11.20;2.25;;;11.00;67.10;;;;;;6131195;22;92485;-74
2022/02/10 14:42:18;;;;;;;7.03;2.00;;;11.00;66.70;;;;;;6151234;22;93413;-74
2022/02/10 15:13:14;;;;;;;8.65;2.13;;;10.60;65.50;;;;;;6103277;23;92423;-74
2022/02/10 15:18:13;;;;;;;6.60;1.58;;;10.50;66.10;;;;;;6125833;23;91837;-76
2022/02/10 15:45:48;;;;;;;9.40;2.22;;;10.20;67.90;;;;;;6124956;23;93190;-74
2022/02/10 15:52:58;;;;;;;6.85;1.90;;;9.70;68.10;;;;;;6129729;22;94775;-71
2022/02/10 16:15:20;;;;;;;12.48;7.43;;;9.20;69.20;;;;;;6128955;22;92368;-70
2022/02/10 16:17:42;;;;;;;16.98;8.18;;;9.20;69.60;;;;;;6128834;22;92413;-71
2022/02/10 16:20:16;;;;;;;9.98;3.20;;;9.10;70.00;;;;;;6153892;22;95488;-71
2022/02/10 16:23:00;;;;;;;8.15;2.47;;;9.10;69.60;;;;;;6128491;22;97905;-71
2022/02/10 16:25:31;;;;;;;7.50;1.90;;;9.00;69.50;;;;;;6154545;22;92410;-71
2022/02/10 16:30:48;;;;;;;7.50;1.73;;;8.90;69.90;;;;;;6155523;22;92987;-70
2022/02/10 16:33:20;;;;;;;5.32;2.17;;;8.80;69.80;;;;;;6130402;22;93051;-71
2022/02/10 16:35:52;;;;;;;9.27;2.22;;;8.80;70.00;;;;;;6130599;22;92485;-71
2022/02/10 16:38:24;;;;;;;8.85;2.50;;;8.70;70.30;;;;;;6131405;22;91636;-75
2022/02/10 16:40:56;;;;;;;10.75;2.00;;;8.70;70.70;;;;;;6105777;22;94733;-75
2022/02/10 16:43:28;;;;;;;8.82;2.10;;;8.70;70.80;;;;;;6129332;22;95674;-75
2022/02/10 16:46:00;;;;;;;9.30;2.53;;;8.60;71.40;;;;;;6105783;22;95086;-71
2022/02/10 16:48:33;;;;;;;6.10;1.75;;;8.60;70.90;;;;;;6155645;22;92314;-71
2022/02/10 16:51:10;;;;;;;9.00;1.45;;;8.60;71.30;;;;;;6105654;22;95706;-70
2022/02/10 16:53:48;;;;;;;10.57;1.73;;;8.50;71.40;;;;;;6155458;22;92361;-74
2022/02/10 16:56:24;;;;;;;10.23;2.10;;;8.50;71.80;;;;;;6129335;22;92367;-75
2022/02/10 17:02:09;;;;;;;8.27;2.35;;;8.40;71.90;;;;;;6100572;22;95697;-74
2022/02/10 17:05:16;;;;;;;6.82;1.92;;;8.40;72.20;;;;;;6135284;22;93132;-70
2022/02/10 17:27:30;;;;;;;14.15;4.50;;;8.00;74.50;;;;;;6123828;22;92837;-70
2022/02/10 17:33:07;;;;;;;13.82;5.20;;;7.80;75.30;;;;;;6155874;22;91661;-70
2022/02/10 17:36:04;;;;;;;11.40;4.07;;;7.80;75.30;;;;;;6128740;22;102441;-74
2022/02/10 17:52:11;;;;;;;17.38;5.53;;;7.60;76.80;;;;;;6155391;22;92375;-70
2022/02/10 17:54:38;;;;;;;10.63;3.20;;;7.50;77.20;;;;;;6101886;23;92421;-70
2022/02/10 17:57:06;;;;;;;12.73;5.22;;;7.50;77.40;;;;;;6125738;23;92818;-74
2022/02/10 17:59:34;;;;;;;13.77;3.53;;;7.50;77.30;;;;;;6125612;23;91810;-74
2022/02/10 18:02:02;;;;;;;12.50;3.80;;;7.40;77.40;;;;;;6098956;23;92426;-75
2022/02/10 18:04:29;;;;;;;11.48;3.60;;;7.40;77.70;;;;;;6099293;23;92427;-74
2022/02/10 18:06:58;;;;;;;6.57;2.47;;;7.40;77.70;;;;;;6123893;23;95488;-74
2022/02/10 18:17:38;;;;;;;8.90;2.25;;;7.40;78.40;;;;;;6125214;23;93032;-74
2022/02/10 18:20:12;;;;;;;5.88;1.63;;;7.30;78.20;;;;;;6098537;23;93813;-74
2022/02/10 18:23:17;;;;;;;10.60;2.10;;;7.30;78.20;;;;;;6125817;23;92342;-74
2022/02/10 18:28:56;;;;;;;7.43;2.22;;;7.20;78.30;;;;;;6047675;23;93017;-74
2022/02/10 19:09:27;;;;;;;10.73;2.60;;;7.00;79.80;;;;;;6107593;22;92497;-70
2022/02/10 19:12:03;;;;;;;12.82;2.55;;;6.90;80.30;;;;;;6103486;22;95598;-70
2022/02/10 19:14:35;;;;;;;6.57;2.45;;;6.90;80.30;;;;;;6155231;22;92885;-73
2022/02/10 19:17:04;;;;;;;9.05;2.70;;;6.80;80.40;;;;;;6128234;22;92462;-69
2022/02/10 19:19:31;;;;;;;10.77;2.78;;;6.80;80.50;;;;;;6128729;22;91672;-70
2022/02/10 19:21:58;;;;;;;10.77;3.03;;;6.80;80.60;;;;;;6154235;22;103299;-73
2022/02/10 19:24:28;;;;;;;10.90;2.83;;;6.90;80.70;;;;;;6155107;22;92903;-73
2022/02/10 19:26:55;;;;;;;8.20;3.22;;;6.90;80.90;;;;;;6153748;22;94812;-74
2022/02/10 19:29:23;;;;;;;10.10;3.20;;;6.90;80.90;;;;;;6128940;22;92469;-69
2022/02/10 19:31:52;;;;;;;17.73;3.00;;;6.90;81.10;;;;;;6155982;22;93100;-69
2022/02/10 19:34:20;;;;;;;9.00;2.35;;;6.90;81.00;;;;;;6105012;22;93724;-70
2022/02/10 19:37:09;;;;;;;11.15;2.67;;;6.90;81.20;;;;;;6134306;22;92896;-70
2022/02/10 19:39:40;;;;;;;11.15;2.70;;;6.80;81.10;;;;;;6129061;22;92486;-70
2022/02/10 19:42:07;;;;;;;11.18;2.47;;;6.80;81.40;;;;;;6104991;22;95650;-70
2022/02/10 19:44:34;;;;;;;7.75;2.67;;;6.80;81.30;;;;;;6105174;22;95622;-70
2022/02/10 19:47:03;;;;;;;12.05;2.95;;;6.80;81.30;;;;;;6129198;22;92488;-70
2022/02/10 19:49:31;;;;;;;9.15;2.85;;;6.80;81.50;;;;;;6129112;22;92455;-70
2022/02/10 19:51:58;;;;;;;15.45;3.35;;;6.80;81.60;;;;;;6127033;22;98256;-69
2022/02/10 19:54:28;;;;;;;12.38;3.20;;;6.80;82.00;;;;;;6145523;22;95417;-70
2022/02/10 19:56:57;;;;;;;10.30;2.40;;;6.80;81.90;;;;;;6154839;22;92508;-70
2022/02/10 19:59:30;;;;;;;14.07;3.33;;;6.70;82.10;;;;;;6156231;22;92393;-70
2022/02/10 20:01:57;;;;;;;14.38;2.60;;;6.70;82.20;;;;;;6129791;22;93102;-74
2022/02/10 20:04:25;;;;;;;15.40;3.00;;;6.70;82.30;;;;;;6156389;22;92962;-74
2022/02/10 20:06:53;;;;;;;10.90;3.75;;;6.70;82.10;;;;;;6154544;22;92414;-73
2022/02/10 20:09:20;;;;;;;9.60;3.42;;;6.70;82.20;;;;;;6156307;22;91628;-74
2022/02/10 20:11:51;;;;;;;9.68;3.15;;;6.70;81.90;;;;;;6154759;22;93177;-74
2022/02/10 20:14:21;;;;;;;13.32;3.40;;;6.70;82.10;;;;;;6155686;22;92913;-74
2022/02/10 20:16:50;;;;;;;14.30;3.85;;;6.60;82.10;;;;;;6154667;22;94742;-74
2022/02/10 20:19:17;;;;;;;7.72;2.90;;;6.60;81.90;;;;;;6129542;22;92522;-74
2022/02/10 20:21:44;;;;;;;10.65;3.53;;;6.60;81.90;;;;;;6155963;22;93241;-69
2022/02/10 20:24:12;;;;;;;8.45;2.50;;;6.60;81.90;;;;;;6155659;22;92956;-70
2022/02/10 20:26:39;;;;;;;12.88;3.17;;;6.60;82.10;;;;;;6129478;22;92371;-69
2022/02/10 20:29:07;;;;;;;14.32;3.03;;;6.60;82.10;;;;;;6154025;22;95327;-74
2022/02/10 20:31:39;;;;;;;8.60;2.45;;;6.60;82.00;;;;;;6154609;22;93141;-74
2022/02/10 20:34:08;;;;;;;14.32;2.97;;;6.50;82.00;;;;;;6154635;22;94545;-73
2022/02/10 20:36:36;;;;;;;9.90;2.00;;;6.50;82.20;;;;;;6156378;22;92790;-73
2022/02/10 20:39:05;;;;;;;11.95;3.05;;;6.50;82.30;;;;;;6154442;22;92340;-74
2022/02/10 20:41:35;;;;;;;11.93;2.45;;;6.50;82.40;;;;;;6154446;22;95529;-74
2022/02/10 20:44:03;;;;;;;10.15;2.60;;;6.50;82.00;;;;;;6155994;22;95419;-73
2022/02/10 20:46:34;;;;;;;11.60;2.42;;;6.50;82.10;;;;;;6156348;22;92584;-73
2022/02/10 20:49:02;;;;;;;9.05;2.33;;;6.50;82.20;;;;;;6156119;22;92377;-73
2022/02/10 20:51:29;;;;;;;10.93;2.95;;;6.50;82.00;;;;;;6156089;22;93178;-74
2022/02/10 20:53:56;;;;;;;8.27;2.60;;;6.40;82.00;;;;;;6128410;22;111634;-74
2022/02/10 20:56:23;;;;;;;6.63;2.08;;;6.40;82.10;;;;;;6154221;22;92465;-69
2022/02/10 20:59:06;;;;;;;11.32;2.47;;;6.40;81.90;;;;;;6154531;22;91746;-69
2022/02/10 21:01:34;;;;;;;9.77;2.47;;;6.40;82.20;;;;;;6153891;22;95614;-70
2022/02/10 21:04:03;;;;;;;9.93;2.10;;;6.40;82.40;;;;;;6155440;22;92826;-69
2022/02/10 21:09:18;;;;;;;10.20;2.38;;;6.40;82.40;;;;;;6155835;22;92426;-73
2022/02/10 21:11:45;;;;;;;13.07;2.53;;;6.40;82.40;;;;;;6155670;22;92998;-75
2022/02/10 21:14:18;;;;;;;14.95;2.55;;;6.40;82.80;;;;;;6153964;22;93089;-76
2022/02/10 21:16:45;;;;;;;12.47;2.57;;;6.40;82.70;;;;;;6129517;22;92619;-74
2022/02/10 21:19:13;;;;;;;11.02;2.42;;;6.40;82.60;;;;;;6155680;22;92354;-73
2022/02/10 21:21:41;;;;;;;13.00;3.15;;;6.50;82.40;;;;;;6154061;22;93113;-73
2022/02/10 21:24:15;;;;;;;8.50;2.22;;;6.50;82.30;;;;;;6129577;22;94019;-73
2022/02/10 21:27:07;;;;;;;13.35;2.55;;;6.50;82.30;;;;;;6154766;22;92414;-73
2022/02/10 21:29:32;;;;;;;7.28;2.53;;;6.40;82.00;;;;;;6153816;22;92852;-73
2022/02/10 21:31:59;;;;;;;11.23;3.17;;;6.40;82.30;;;;;;6153992;22;94738;-73
2022/02/10 21:34:31;;;;;;;12.85;3.00;;;6.40;82.30;;;;;;6155458;22;95719;-73
2022/02/10 21:39:48;;;;;;;9.65;2.45;;;6.40;82.20;;;;;;6155577;22;92417;-73
2022/02/10 21:48:09;;;;;;;12.90;2.80;;;6.30;82.30;;;;;;6155972;22;92271;-73
2022/02/10 22:04:42;;;;;;;10.55;1.98;;;6.10;82.40;;;;;;6128574;22;95689;-73
2022/02/10 22:18:31;;;;;;;8.30;2.00;;;5.80;82.90;;;;;;6133477;22;92956;-70
2022/02/10 22:20:54;;;;;;;9.10;2.80;;;5.70;83.20;;;;;;6155246;22;92783;-70
2022/02/10 22:23:24;;;;;;;9.13;2.05;;;5.70;83.70;;;;;;6128647;22;92448;-70
2022/02/10 22:25:57;;;;;;;10.98;1.77;;;5.60;83.70;;;;;;6128053;22;97564;-70
2022/02/10 22:36:22;;;;;;;9.20;2.35;;;5.40;84.40;;;;;;6154996;22;93106;-70
2022/02/10 22:38:52;;;;;;;12.27;1.85;;;5.30;84.90;;;;;;6128707;22;93578;-70
2022/02/10 22:41:20;;;;;;;11.93;2.33;;;5.30;85.30;;;;;;6155355;22;92779;-70
2022/02/10 22:43:50;;;;;;;9.90;2.40;;;5.20;85.20;;;;;;6129236;22;91663;-70
2022/02/10 22:46:19;;;;;;;7.90;2.92;;;5.20;85.30;;;;;;6128440;22;98827;-70
2022/02/10 22:48:48;;;;;;;8.98;2.35;;;5.10;85.50;;;;;;6155217;22;93053;-69
2022/02/10 22:51:22;;;;;;;12.68;3.17;;;5.10;85.90;;;;;;6126222;22;103384;-70
2022/02/10 22:53:49;;;;;;;15.13;2.65;;;5.10;86.20;;;;;;6155306;22;92373;-70
2022/02/10 22:56:19;;;;;;;11.27;3.17;;;5.00;86.40;;;;;;6155064;22;93168;-70
2022/02/10 22:58:47;;;;;;;11.18;2.65;;;5.00;86.50;;;;;;6155187;22;92813;-70
2022/02/10 23:01:15;;;;;;;10.75;3.20;;;5.00;86.70;;;;;;6155365;22;92384;-69
2022/02/10 23:03:42;;;;;;;14.32;2.97;;;4.90;87.20;;;;;;6127838;22;92428;-70
2022/02/10 23:06:11;;;;;;;8.00;2.42;;;4.90;87.50;;;;;;6128070;22;94610;-70
2022/02/10 23:08:39;;;;;;;8.88;2.40;;;4.90;87.30;;;;;;6155150;22;93166;-69
2022/02/10 23:11:07;;;;;;;10.88;2.72;;;4.90;87.30;;;;;;6155300;22;92377;-73
2022/02/10 23:13:35;;;;;;;5.57;2.25;;;4.80;87.40;;;;;;6127927;22;92707;-73
2022/02/10 23:16:06;;;;;;;5.60;2.42;;;4.80;87.40;;;;;;6153438;22;95608;-73
2022/02/10 23:18:35;;;;;;;11.85;2.67;;;4.80;87.40;;;;;;6127646;22;97878;-73
2022/02/10 23:21:09;;;;;;;9.30;2.90;;;4.70;87.40;;;;;;6155436;22;92428;-73
2022/02/10 23:23:37;;;;;;;10.18;3.45;;;4.70;87.50;;;;;;6128181;22;92409;-73
2022/02/10 23:26:06;;;;;;;8.30;2.75;;;4.70;87.70;;;;;;6154995;22;93109;-73
2022/02/10 23:28:43;;;;;;;8.80;3.13;;;4.70;88.20;;;;;;6127818;22;95618;-74
2022/02/10 23:31:12;;;;;;;8.68;2.75;;;4.70;88.40;;;;;;6155268;22;92275;-74
2022/02/10 23:33:43;;;;;;;11.57;2.90;;;4.80;88.60;;;;;;6155242;22;92134;-73
2022/02/10 23:44:16;;;;;;;7.50;3.00;;;5.10;88.70;;;;;;6154855;22;92316;-74
2022/02/10 23:46:44;;;;;;;9.88;3.00;;;5.20;88.60;;;;;;6127826;22;95929;-73
2022/02/10 23:49:19;;;;;;;16.60;3.65;;;5.20;88.20;;;;;;6154686;22;93260;-74
2022/02/10 23:51:53;;;;;;;13.48;3.40;;;5.30;88.10;;;;;;6129402;22;92936;-74
2022/02/10 23:54:21;;;;;;;8.57;3.60;;;5.20;87.80;;;;;;6154549;22;92319;-74
2022/02/10 23:56:55;;;;;;;6.05;3.53;;;5.20;87.80;;;;;;6154201;22;103095;-74
2022/02/10 23:59:40;;;;;;;12.00;3.63;;;5.20;88.20;;;;;;6155110;22;92986;-74
